sensor_id;sensor_type;location;lat;lon;timestamp;P1;durP1;ratioP1;P2;durP2;ratioP2
5774;SDS011;2913;51.120;6.772;2024-02-15T00:01:16;11.63;;;3.22;;
5774;SDS011;2913;51.120;6.772;2024-02-15T00:03:41;11.25;;;3.20;;
5774;SDS011;2913;51.120;6.772;2024-02-15T00:06:07;11.30;;;3.35;;
5774;SDS011;2913;51.120;6.772;2024-02-15T00:08:32;15.27;;;3.45;;
5774;SDS011;2913;51.120;6.772;2024-02-15T00:11:00;10.00;;;3.20;;
5774;SDS011;2913;51.120;6.772;2024-02-15T00:13:28;15.95;;;3.47;;
5774;SDS011;2913;51.120;6.772;2024-02-15T00:15:58;11.02;;;3.25;;
5774;SDS011;2913;51.120;6.772;2024-02-15T00:18:24;9.60;;;2.90;;
5774;SDS011;2913;51.120;6.772;2024-02-15T00:20:50;13.18;;;3.65;;
5774;SDS011;2913;51.120;6.772;2024-02-15T00:23:15;9.65;;;3.40;;
5774;SDS011;2913;51.120;6.772;2024-02-15T00:25:41;9.48;;;3.40;;
5774;SDS011;2913;51.120;6.772;2024-02-15T00:28:10;11.55;;;3.35;;
5774;SDS011;2913;51.120;6.772;2024-02-15T00:30:36;10.65;;;3.70;;
5774;SDS011;2913;51.120;6.772;2024-02-15T00:33:04;11.43;;;3.25;;
5774;SDS011;2913;51.120;6.772;2024-02-15T00:35:30;14.18;;;2.95;;
5774;SDS011;2913;51.120;6.772;2024-02-15T00:37:56;15.85;;;3.28;;
5774;SDS011;2913;51.120;6.772;2024-02-15T00:40:22;6.28;;;2.92;;
5774;SDS011;2913;51.120;6.772;2024-02-15T00:42:47;11.98;;;3.28;;
5774;SDS011;2913;51.120;6.772;2024-02-15T00:45:13;14.43;;;3.35;;
5774;SDS011;2913;51.120;6.772;2024-02-15T00:47:39;8.45;;;3.15;;
5774;SDS011;2913;51.120;6.772;2024-02-15T00:50:07;9.32;;;3.53;;
5774;SDS011;2913;51.120;6.772;2024-02-15T00:52:38;12.23;;;3.72;;
5774;SDS011;2913;51.120;6.772;2024-02-15T00:55:04;12.38;;;3.58;;
5774;SDS011;2913;51.120;6.772;2024-02-15T00:57:32;9.48;;;3.40;;
5774;SDS011;2913;51.120;6.772;2024-02-15T00:59:58;15.68;;;4.10;;
5774;SDS011;2913;51.120;6.772;2024-02-15T01:02:24;11.88;;;3.67;;
5774;SDS011;2913;51.120;6.772;2024-02-15T01:04:50;8.07;;;2.92;;
5774;SDS011;2913;51.120;6.772;2024-02-15T01:07:24;14.87;;;3.30;;
5774;SDS011;2913;51.120;6.772;2024-02-15T01:09:53;18.23;;;3.20;;
5774;SDS011;2913;51.120;6.772;2024-02-15T01:12:19;13.68;;;3.47;;
5774;SDS011;2913;51.120;6.772;2024-02-15T01:14:48;9.48;;;2.97;;
5774;SDS011;2913;51.120;6.772;2024-02-15T01:17:16;9.73;;;3.30;;
5774;SDS011;2913;51.120;6.772;2024-02-15T01:19:42;13.70;;;3.83;;
5774;SDS011;2913;51.120;6.772;2024-02-15T01:22:09;8.15;;;2.80;;
5774;SDS011;2913;51.120;6.772;2024-02-15T01:24:37;7.72;;;3.00;;
5774;SDS011;2913;51.120;6.772;2024-02-15T01:27:03;12.07;;;4.07;;
5774;SDS011;2913;51.120;6.772;2024-02-15T01:29:29;12.50;;;3.42;;
5774;SDS011;2913;51.120;6.772;2024-02-15T01:31:55;11.23;;;3.13;;
5774;SDS011;2913;51.120;6.772;2024-02-15T01:34:20;9.75;;;2.55;;
5774;SDS011;2913;51.120;6.772;2024-02-15T01:36:49;10.18;;;3.03;;
5774;SDS011;2913;51.120;6.772;2024-02-15T01:39:19;12.10;;;3.17;;
5774;SDS011;2913;51.120;6.772;2024-02-15T01:41:48;11.52;;;3.13;;
5774;SDS011;2913;51.120;6.772;2024-02-15T01:44:20;10.00;;;3.05;;
5774;SDS011;2913;51.120;6.772;2024-02-15T01:46:46;11.40;;;3.00;;
5774;SDS011;2913;51.120;6.772;2024-02-15T01:49:17;11.48;;;2.90;;
5774;SDS011;2913;51.120;6.772;2024-02-15T01:51:43;10.75;;;2.95;;
5774;SDS011;2913;51.120;6.772;2024-02-15T01:54:10;8.60;;;2.70;;
5774;SDS011;2913;51.120;6.772;2024-02-15T01:56:38;10.18;;;3.10;;
5774;SDS011;2913;51.120;6.772;2024-02-15T01:59:04;9.52;;;3.10;;
5774;SDS011;2913;51.120;6.772;2024-02-15T02:01:31;11.02;;;2.75;;
5774;SDS011;2913;51.120;6.772;2024-02-15T02:03:59;12.48;;;3.00;;
5774;SDS011;2913;51.120;6.772;2024-02-15T02:06:28;15.30;;;3.10;;
5774;SDS011;2913;51.120;6.772;2024-02-15T02:08:54;15.00;;;3.53;;
5774;SDS011;2913;51.120;6.772;2024-02-15T02:11:21;13.80;;;2.80;;
5774;SDS011;2913;51.120;6.772;2024-02-15T02:13:47;9.27;;;2.80;;
5774;SDS011;2913;51.120;6.772;2024-02-15T02:18:52;10.20;;;2.95;;
5774;SDS011;2913;51.120;6.772;2024-02-15T02:21:18;10.82;;;3.33;;
5774;SDS011;2913;51.120;6.772;2024-02-15T02:23:45;13.32;;;3.08;;
5774;SDS011;2913;51.120;6.772;2024-02-15T02:26:16;11.75;;;3.72;;
5774;SDS011;2913;51.120;6.772;2024-02-15T02:28:47;14.90;;;3.60;;
5774;SDS011;2913;51.120;6.772;2024-02-15T02:31:13;15.13;;;3.35;;
5774;SDS011;2913;51.120;6.772;2024-02-15T02:33:39;16.15;;;3.50;;
5774;SDS011;2913;51.120;6.772;2024-02-15T02:36:08;9.93;;;3.10;;
5774;SDS011;2913;51.120;6.772;2024-02-15T02:38:37;9.82;;;3.10;;
5774;SDS011;2913;51.120;6.772;2024-02-15T02:41:06;12.50;;;2.95;;
5774;SDS011;2913;51.120;6.772;2024-02-15T02:43:34;13.23;;;3.55;;
5774;SDS011;2913;51.120;6.772;2024-02-15T02:45:59;10.90;;;2.67;;
5774;SDS011;2913;51.120;6.772;2024-02-15T02:48:25;8.25;;;2.70;;
5774;SDS011;2913;51.120;6.772;2024-02-15T02:50:52;7.20;;;2.92;;
5774;SDS011;2913;51.120;6.772;2024-02-15T02:53:17;13.88;;;2.65;;
5774;SDS011;2913;51.120;6.772;2024-02-15T02:55:45;17.77;;;3.20;;
5774;SDS011;2913;51.120;6.772;2024-02-15T02:58:11;9.30;;;2.50;;
5774;SDS011;2913;51.120;6.772;2024-02-15T03:00:37;7.25;;;2.35;;
5774;SDS011;2913;51.120;6.772;2024-02-15T03:03:06;8.13;;;2.55;;
5774;SDS011;2913;51.120;6.772;2024-02-15T03:05:32;5.15;;;2.45;;
5774;SDS011;2913;51.120;6.772;2024-02-15T03:07:58;9.35;;;2.25;;
5774;SDS011;2913;51.120;6.772;2024-02-15T03:10:23;12.98;;;2.50;;
5774;SDS011;2913;51.120;6.772;2024-02-15T03:12:49;4.88;;;2.20;;
5774;SDS011;2913;51.120;6.772;2024-02-15T03:15:15;8.70;;;2.45;;
5774;SDS011;2913;51.120;6.772;2024-02-15T03:17:47;7.00;;;2.17;;
5774;SDS011;2913;51.120;6.772;2024-02-15T03:20:13;2.55;;;1.90;;
5774;SDS011;2913;51.120;6.772;2024-02-15T03:22:57;7.03;;;1.95;;
5774;SDS011;2913;51.120;6.772;2024-02-15T03:25:26;5.45;;;2.20;;
5774;SDS011;2913;51.120;6.772;2024-02-15T03:27:54;4.70;;;2.00;;
5774;SDS011;2913;51.120;6.772;2024-02-15T03:30:24;6.90;;;2.58;;
5774;SDS011;2913;51.120;6.772;2024-02-15T03:32:51;6.60;;;2.40;;
5774;SDS011;2913;51.120;6.772;2024-02-15T03:35:19;6.88;;;2.55;;
5774;SDS011;2913;51.120;6.772;2024-02-15T03:37:47;6.68;;;2.13;;
5774;SDS011;2913;51.120;6.772;2024-02-15T03:40:16;7.03;;;2.05;;
5774;SDS011;2913;51.120;6.772;2024-02-15T03:42:43;4.22;;;2.20;;
5774;SDS011;2913;51.120;6.772;2024-02-15T03:45:08;8.50;;;2.35;;
5774;SDS011;2913;51.120;6.772;2024-02-15T03:47:38;5.50;;;2.20;;
5774;SDS011;2913;51.120;6.772;2024-02-15T03:50:07;6.15;;;2.03;;
5774;SDS011;2913;51.120;6.772;2024-02-15T03:52:35;8.90;;;2.17;;
5774;SDS011;2913;51.120;6.772;2024-02-15T03:55:02;7.32;;;2.50;;
5774;SDS011;2913;51.120;6.772;2024-02-15T03:57:32;5.65;;;2.97;;
5774;SDS011;2913;51.120;6.772;2024-02-15T04:00:00;8.75;;;3.35;;
5774;SDS011;2913;51.120;6.772;2024-02-15T04:02:26;10.43;;;3.40;;
5774;SDS011;2913;51.120;6.772;2024-02-15T04:04:53;8.18;;;3.08;;
5774;SDS011;2913;51.120;6.772;2024-02-15T04:07:22;8.07;;;3.42;;
5774;SDS011;2913;51.120;6.772;2024-02-15T04:09:51;6.82;;;3.42;;
5774;SDS011;2913;51.120;6.772;2024-02-15T04:12:20;8.40;;;3.00;;
5774;SDS011;2913;51.120;6.772;2024-02-15T04:14:46;5.05;;;2.95;;
5774;SDS011;2913;51.120;6.772;2024-02-15T04:17:14;6.95;;;2.92;;
5774;SDS011;2913;51.120;6.772;2024-02-15T04:19:43;9.18;;;2.97;;
5774;SDS011;2913;51.120;6.772;2024-02-15T04:22:12;4.70;;;3.20;;
5774;SDS011;2913;51.120;6.772;2024-02-15T04:24:41;9.98;;;3.65;;
5774;SDS011;2913;51.120;6.772;2024-02-15T04:27:07;8.20;;;2.92;;
5774;SDS011;2913;51.120;6.772;2024-02-15T04:29:33;7.47;;;2.95;;
5774;SDS011;2913;51.120;6.772;2024-02-15T04:32:05;11.82;;;3.35;;
5774;SDS011;2913;51.120;6.772;2024-02-15T04:34:34;9.18;;;3.05;;
5774;SDS011;2913;51.120;6.772;2024-02-15T04:36:59;9.20;;;3.10;;
5774;SDS011;2913;51.120;6.772;2024-02-15T04:39:26;6.05;;;2.85;;
5774;SDS011;2913;51.120;6.772;2024-02-15T04:41:55;6.65;;;2.58;;
5774;SDS011;2913;51.120;6.772;2024-02-15T04:44:20;7.43;;;2.75;;
5774;SDS011;2913;51.120;6.772;2024-02-15T04:46:47;5.85;;;2.78;;
5774;SDS011;2913;51.120;6.772;2024-02-15T04:49:18;10.73;;;3.00;;
5774;SDS011;2913;51.120;6.772;2024-02-15T04:51:44;5.63;;;2.33;;
5774;SDS011;2913;51.120;6.772;2024-02-15T04:54:10;6.63;;;2.92;;
5774;SDS011;2913;51.120;6.772;2024-02-15T04:56:41;8.02;;;2.88;;
5774;SDS011;2913;51.120;6.772;2024-02-15T04:59:09;4.75;;;2.60;;
5774;SDS011;2913;51.120;6.772;2024-02-15T05:01:40;5.45;;;3.20;;
5774;SDS011;2913;51.120;6.772;2024-02-15T05:04:07;7.57;;;2.72;;
5774;SDS011;2913;51.120;6.772;2024-02-15T05:06:33;6.55;;;2.40;;
5774;SDS011;2913;51.120;6.772;2024-02-15T05:09:01;6.07;;;2.63;;
5774;SDS011;2913;51.120;6.772;2024-02-15T05:11:32;6.28;;;2.92;;
5774;SDS011;2913;51.120;6.772;2024-02-15T05:14:01;7.03;;;2.70;;
5774;SDS011;2913;51.120;6.772;2024-02-15T05:16:32;8.43;;;2.90;;
5774;SDS011;2913;51.120;6.772;2024-02-15T05:19:07;3.58;;;2.50;;
5774;SDS011;2913;51.120;6.772;2024-02-15T05:21:37;10.80;;;2.33;;
5774;SDS011;2913;51.120;6.772;2024-02-15T05:24:06;7.05;;;2.85;;
5774;SDS011;2913;51.120;6.772;2024-02-15T05:26:31;6.03;;;2.78;;
5774;SDS011;2913;51.120;6.772;2024-02-15T05:28:59;4.45;;;2.60;;
5774;SDS011;2913;51.120;6.772;2024-02-15T05:31:25;4.20;;;2.72;;
5774;SDS011;2913;51.120;6.772;2024-02-15T05:33:55;4.78;;;2.65;;
5774;SDS011;2913;51.120;6.772;2024-02-15T05:36:23;4.15;;;2.55;;
5774;SDS011;2913;51.120;6.772;2024-02-15T05:38:51;8.43;;;2.50;;
5774;SDS011;2913;51.120;6.772;2024-02-15T05:41:20;9.77;;;2.28;;
5774;SDS011;2913;51.120;6.772;2024-02-15T05:43:47;3.95;;;2.50;;
5774;SDS011;2913;51.120;6.772;2024-02-15T05:46:18;7.15;;;2.83;;
5774;SDS011;2913;51.120;6.772;2024-02-15T05:48:46;13.77;;;3.00;;
5774;SDS011;2913;51.120;6.772;2024-02-15T05:51:14;6.13;;;2.88;;
5774;SDS011;2913;51.120;6.772;2024-02-15T05:53:40;9.57;;;2.95;;
5774;SDS011;2913;51.120;6.772;2024-02-15T05:56:07;6.93;;;2.67;;
5774;SDS011;2913;51.120;6.772;2024-02-15T05:58:33;5.60;;;3.03;;
5774;SDS011;2913;51.120;6.772;2024-02-15T06:01:02;5.55;;;2.90;;
5774;SDS011;2913;51.120;6.772;2024-02-15T06:03:31;5.88;;;2.90;;
5774;SDS011;2913;51.120;6.772;2024-02-15T06:05:59;7.40;;;2.63;;
5774;SDS011;2913;51.120;6.772;2024-02-15T06:08:27;4.85;;;2.85;;
5774;SDS011;2913;51.120;6.772;2024-02-15T06:10:56;6.28;;;2.88;;
5774;SDS011;2913;51.120;6.772;2024-02-15T06:13:25;6.07;;;2.90;;
5774;SDS011;2913;51.120;6.772;2024-02-15T06:15:52;7.13;;;3.00;;
5774;SDS011;2913;51.120;6.772;2024-02-15T06:18:22;12.20;;;3.30;;
5774;SDS011;2913;51.120;6.772;2024-02-15T06:20:50;7.47;;;3.15;;
5774;SDS011;2913;51.120;6.772;2024-02-15T06:23:18;6.82;;;3.35;;
5774;SDS011;2913;51.120;6.772;2024-02-15T06:25:44;13.85;;;3.33;;
5774;SDS011;2913;51.120;6.772;2024-02-15T06:28:13;9.68;;;3.28;;
5774;SDS011;2913;51.120;6.772;2024-02-15T06:30:58;10.02;;;3.00;;
5774;SDS011;2913;51.120;6.772;2024-02-15T06:33:45;6.70;;;2.88;;
5774;SDS011;2913;51.120;6.772;2024-02-15T06:36:29;5.65;;;2.88;;
5774;SDS011;2913;51.120;6.772;2024-02-15T06:39:16;10.48;;;3.67;;
5774;SDS011;2913;51.120;6.772;2024-02-15T06:42:00;12.13;;;3.10;;
5774;SDS011;2913;51.120;6.772;2024-02-15T06:44:26;7.82;;;3.22;;
5774;SDS011;2913;51.120;6.772;2024-02-15T06:46:52;5.93;;;2.97;;
5774;SDS011;2913;51.120;6.772;2024-02-15T06:49:18;3.88;;;1.98;;
5774;SDS011;2913;51.120;6.772;2024-02-15T06:51:49;7.40;;;2.55;;
5774;SDS011;2913;51.120;6.772;2024-02-15T06:54:15;7.63;;;2.97;;
5774;SDS011;2913;51.120;6.772;2024-02-15T06:56:43;12.10;;;2.97;;
5774;SDS011;2913;51.120;6.772;2024-02-15T06:59:11;12.13;;;3.03;;
5774;SDS011;2913;51.120;6.772;2024-02-15T07:01:40;9.90;;;2.92;;
5774;SDS011;2913;51.120;6.772;2024-02-15T07:04:06;9.02;;;2.70;;
5774;SDS011;2913;51.120;6.772;2024-02-15T07:06:35;8.80;;;3.03;;
5774;SDS011;2913;51.120;6.772;2024-02-15T07:09:06;4.32;;;2.60;;
5774;SDS011;2913;51.120;6.772;2024-02-15T07:11:32;6.82;;;2.88;;
5774;SDS011;2913;51.120;6.772;2024-02-15T07:14:01;11.88;;;2.85;;
5774;SDS011;2913;51.120;6.772;2024-02-15T07:16:26;10.25;;;2.90;;
5774;SDS011;2913;51.120;6.772;2024-02-15T07:18:54;11.23;;;3.35;;
5774;SDS011;2913;51.120;6.772;2024-02-15T07:21:22;10.02;;;2.90;;
5774;SDS011;2913;51.120;6.772;2024-02-15T07:23:52;9.80;;;2.80;;
5774;SDS011;2913;51.120;6.772;2024-02-15T07:26:19;8.05;;;2.85;;
5774;SDS011;2913;51.120;6.772;2024-02-15T07:28:45;9.68;;;3.08;;
5774;SDS011;2913;51.120;6.772;2024-02-15T07:31:13;14.32;;;2.88;;
5774;SDS011;2913;51.120;6.772;2024-02-15T07:33:39;7.68;;;2.80;;
5774;SDS011;2913;51.120;6.772;2024-02-15T07:36:08;8.25;;;2.70;;
5774;SDS011;2913;51.120;6.772;2024-02-15T07:38:33;9.25;;;4.15;;
5774;SDS011;2913;51.120;6.772;2024-02-15T07:40:59;11.63;;;3.25;;
5774;SDS011;2913;51.120;6.772;2024-02-15T07:43:30;11.15;;;3.35;;
5774;SDS011;2913;51.120;6.772;2024-02-15T07:46:00;12.43;;;3.70;;
5774;SDS011;2913;51.120;6.772;2024-02-15T07:48:26;10.73;;;3.00;;
5774;SDS011;2913;51.120;6.772;2024-02-15T07:50:54;7.05;;;2.85;;
5774;SDS011;2913;51.120;6.772;2024-02-15T07:53:19;8.60;;;3.05;;
5774;SDS011;2913;51.120;6.772;2024-02-15T07:55:48;8.32;;;3.25;;
5774;SDS011;2913;51.120;6.772;2024-02-15T07:58:16;6.90;;;2.67;;
5774;SDS011;2913;51.120;6.772;2024-02-15T08:00:44;10.70;;;3.38;;
5774;SDS011;2913;51.120;6.772;2024-02-15T08:03:13;8.63;;;2.95;;
5774;SDS011;2913;51.120;6.772;2024-02-15T08:05:39;18.90;;;3.65;;
5774;SDS011;2913;51.120;6.772;2024-02-15T08:08:07;20.05;;;3.33;;
5774;SDS011;2913;51.120;6.772;2024-02-15T08:10:32;7.18;;;2.40;;
5774;SDS011;2913;51.120;6.772;2024-02-15T08:12:58;13.68;;;3.83;;
5774;SDS011;2913;51.120;6.772;2024-02-15T08:15:27;13.73;;;3.20;;
5774;SDS011;2913;51.120;6.772;2024-02-15T08:17:52;7.93;;;2.90;;
5774;SDS011;2913;51.120;6.772;2024-02-15T08:20:20;14.13;;;3.40;;
5774;SDS011;2913;51.120;6.772;2024-02-15T08:22:48;5.60;;;2.25;;
5774;SDS011;2913;51.120;6.772;2024-02-15T08:25:16;6.97;;;2.55;;
5774;SDS011;2913;51.120;6.772;2024-02-15T08:27:46;3.55;;;1.90;;
5774;SDS011;2913;51.120;6.772;2024-02-15T08:30:17;8.02;;;2.80;;
5774;SDS011;2913;51.120;6.772;2024-02-15T08:32:44;10.70;;;3.40;;
5774;SDS011;2913;51.120;6.772;2024-02-15T08:35:13;9.45;;;3.20;;
5774;SDS011;2913;51.120;6.772;2024-02-15T08:37:39;8.65;;;3.50;;
5774;SDS011;2913;51.120;6.772;2024-02-15T08:40:07;13.13;;;3.95;;
5774;SDS011;2913;51.120;6.772;2024-02-15T08:42:40;8.02;;;3.53;;
5774;SDS011;2913;51.120;6.772;2024-02-15T08:45:09;8.73;;;2.92;;
5774;SDS011;2913;51.120;6.772;2024-02-15T08:47:36;7.47;;;3.10;;
5774;SDS011;2913;51.120;6.772;2024-02-15T08:50:02;6.32;;;2.90;;
5774;SDS011;2913;51.120;6.772;2024-02-15T08:52:32;9.85;;;2.72;;
5774;SDS011;2913;51.120;6.772;2024-02-15T08:54:57;10.80;;;3.10;;
5774;SDS011;2913;51.120;6.772;2024-02-15T08:57:26;11.63;;;2.67;;
5774;SDS011;2913;51.120;6.772;2024-02-15T08:59:52;7.30;;;2.78;;
5774;SDS011;2913;51.120;6.772;2024-02-15T09:02:18;11.23;;;3.05;;
5774;SDS011;2913;51.120;6.772;2024-02-15T09:04:44;9.13;;;3.53;;
5774;SDS011;2913;51.120;6.772;2024-02-15T09:07:14;5.38;;;2.97;;
5774;SDS011;2913;51.120;6.772;2024-02-15T09:09:40;10.57;;;3.25;;
5774;SDS011;2913;51.120;6.772;2024-02-15T09:12:08;10.88;;;3.28;;
5774;SDS011;2913;51.120;6.772;2024-02-15T09:14:39;17.58;;;3.60;;
5774;SDS011;2913;51.120;6.772;2024-02-15T09:17:05;12.35;;;2.08;;
5774;SDS011;2913;51.120;6.772;2024-02-15T09:19:36;8.40;;;2.90;;
5774;SDS011;2913;51.120;6.772;2024-02-15T09:22:04;14.70;;;3.47;;
5774;SDS011;2913;51.120;6.772;2024-02-15T09:24:31;6.85;;;3.45;;
5774;SDS011;2913;51.120;6.772;2024-02-15T09:26:59;6.97;;;3.50;;
5774;SDS011;2913;51.120;6.772;2024-02-15T09:29:26;8.65;;;3.22;;
5774;SDS011;2913;51.120;6.772;2024-02-15T09:31:57;10.95;;;2.70;;
5774;SDS011;2913;51.120;6.772;2024-02-15T09:34:23;8.20;;;3.35;;
5774;SDS011;2913;51.120;6.772;2024-02-15T09:36:49;7.30;;;3.38;;
5774;SDS011;2913;51.120;6.772;2024-02-15T09:39:15;7.72;;;3.08;;
5774;SDS011;2913;51.120;6.772;2024-02-15T09:41:42;7.85;;;3.63;;
5774;SDS011;2913;51.120;6.772;2024-02-15T09:44:08;9.32;;;3.35;;
5774;SDS011;2913;51.120;6.772;2024-02-15T09:46:42;12.95;;;3.85;;
5774;SDS011;2913;51.120;6.772;2024-02-15T09:51:37;10.98;;;4.00;;
5774;SDS011;2913;51.120;6.772;2024-02-15T09:54:07;8.85;;;3.70;;
5774;SDS011;2913;51.120;6.772;2024-02-15T09:56:36;16.38;;;3.67;;
5774;SDS011;2913;51.120;6.772;2024-02-15T09:59:03;13.88;;;2.80;;
5774;SDS011;2913;51.120;6.772;2024-02-15T10:01:32;6.45;;;2.28;;
5774;SDS011;2913;51.120;6.772;2024-02-15T10:04:02;13.45;;;3.53;;
5774;SDS011;2913;51.120;6.772;2024-02-15T10:06:31;11.23;;;3.63;;
5774;SDS011;2913;51.120;6.772;2024-02-15T10:09:22;8.38;;;2.83;;
5774;SDS011;2913;51.120;6.772;2024-02-15T10:11:55;8.48;;;2.72;;
5774;SDS011;2913;51.120;6.772;2024-02-15T10:14:26;6.47;;;1.70;;
5774;SDS011;2913;51.120;6.772;2024-02-15T10:16:55;8.00;;;2.90;;
5774;SDS011;2913;51.120;6.772;2024-02-15T10:19:21;6.68;;;2.40;;
5774;SDS011;2913;51.120;6.772;2024-02-15T10:21:55;8.88;;;3.15;;
5774;SDS011;2913;51.120;6.772;2024-02-15T10:24:32;13.60;;;3.00;;
5774;SDS011;2913;51.120;6.772;2024-02-15T10:27:01;8.70;;;2.50;;
5774;SDS011;2913;51.120;6.772;2024-02-15T10:29:31;16.40;;;3.00;;
5774;SDS011;2913;51.120;6.772;2024-02-15T10:32:00;7.38;;;2.30;;
5774;SDS011;2913;51.120;6.772;2024-02-15T10:34:29;9.90;;;2.58;;
5774;SDS011;2913;51.120;6.772;2024-02-15T10:37:11;9.80;;;2.40;;
5774;SDS011;2913;51.120;6.772;2024-02-15T10:39:40;6.90;;;2.22;;
5774;SDS011;2913;51.120;6.772;2024-02-15T10:42:06;4.70;;;2.20;;
5774;SDS011;2913;51.120;6.772;2024-02-15T10:44:38;7.25;;;2.25;;
5774;SDS011;2913;51.120;6.772;2024-02-15T10:47:05;10.80;;;2.30;;
5774;SDS011;2913;51.120;6.772;2024-02-15T10:49:32;4.53;;;2.15;;
5774;SDS011;2913;51.120;6.772;2024-02-15T10:52:01;8.98;;;2.00;;
5774;SDS011;2913;51.120;6.772;2024-02-15T10:57:02;10.20;;;2.10;;
5774;SDS011;2913;51.120;6.772;2024-02-15T10:59:31;4.03;;;1.88;;
5774;SDS011;2913;51.120;6.772;2024-02-15T11:02:00;3.78;;;1.52;;
5774;SDS011;2913;51.120;6.772;2024-02-15T11:04:30;7.00;;;1.70;;
5774;SDS011;2913;51.120;6.772;2024-02-15T11:07:00;5.20;;;1.77;;
5774;SDS011;2913;51.120;6.772;2024-02-15T11:09:27;8.35;;;2.17;;
5774;SDS011;2913;51.120;6.772;2024-02-15T11:11:54;7.85;;;2.38;;
5774;SDS011;2913;51.120;6.772;2024-02-15T11:14:27;2.53;;;1.42;;
5774;SDS011;2913;51.120;6.772;2024-02-15T11:16:54;5.72;;;1.65;;
5774;SDS011;2913;51.120;6.772;2024-02-15T11:19:44;7.72;;;1.83;;
5774;SDS011;2913;51.120;6.772;2024-02-15T11:22:14;10.35;;;1.77;;
5774;SDS011;2913;51.120;6.772;2024-02-15T11:24:48;8.43;;;2.00;;
5774;SDS011;2913;51.120;6.772;2024-02-15T11:27:24;8.07;;;1.95;;
5774;SDS011;2913;51.120;6.772;2024-02-15T11:30:00;8.52;;;1.75;;
5774;SDS011;2913;51.120;6.772;2024-02-15T11:32:46;7.20;;;2.17;;
5774;SDS011;2913;51.120;6.772;2024-02-15T11:42:43;4.45;;;1.83;;
5774;SDS011;2913;51.120;6.772;2024-02-15T11:45:15;5.32;;;1.65;;
5774;SDS011;2913;51.120;6.772;2024-02-15T11:47:43;3.05;;;1.30;;
5774;SDS011;2913;51.120;6.772;2024-02-15T11:50:17;12.25;;;2.28;;
5774;SDS011;2913;51.120;6.772;2024-02-15T11:52:45;4.32;;;1.60;;
5774;SDS011;2913;51.120;6.772;2024-02-15T11:55:23;5.18;;;1.55;;
5774;SDS011;2913;51.120;6.772;2024-02-15T11:57:58;6.22;;;1.90;;
5774;SDS011;2913;51.120;6.772;2024-02-15T12:00:43;5.68;;;1.77;;
5774;SDS011;2913;51.120;6.772;2024-02-15T12:03:30;14.18;;;2.00;;
5774;SDS011;2913;51.120;6.772;2024-02-15T12:06:17;9.57;;;3.17;;
5774;SDS011;2913;51.120;6.772;2024-02-15T12:09:02;974.03;;;252.50;;
5774;SDS011;2913;51.120;6.772;2024-02-15T12:11:46;4.18;;;1.80;;
5774;SDS011;2913;51.120;6.772;2024-02-15T12:14:30;590.75;;;169.02;;
5774;SDS011;2913;51.120;6.772;2024-02-15T12:17:19;881.97;;;257.23;;
5774;SDS011;2913;51.120;6.772;2024-02-15T12:20:07;1171.72;;;374.98;;
5774;SDS011;2913;51.120;6.772;2024-02-15T12:22:39;358.75;;;109.47;;
5774;SDS011;2913;51.120;6.772;2024-02-15T12:25:12;894.03;;;290.63;;
5774;SDS011;2913;51.120;6.772;2024-02-15T12:27:40;1224.00;;;349.90;;
5774;SDS011;2913;51.120;6.772;2024-02-15T12:30:08;1779.95;;;544.50;;
5774;SDS011;2913;51.120;6.772;2024-02-15T12:32:38;10.20;;;2.40;;
5774;SDS011;2913;51.120;6.772;2024-02-15T12:35:11;4.78;;;1.77;;
5774;SDS011;2913;51.120;6.772;2024-02-15T12:37:47;7.30;;;2.00;;
5774;SDS011;2913;51.120;6.772;2024-02-15T12:40:19;5.57;;;1.67;;
5774;SDS011;2913;51.120;6.772;2024-02-15T12:42:47;8.07;;;2.05;;
5774;SDS011;2913;51.120;6.772;2024-02-15T12:45:19;5.93;;;1.48;;
5774;SDS011;2913;51.120;6.772;2024-02-15T12:47:52;7.72;;;1.83;;
5774;SDS011;2913;51.120;6.772;2024-02-15T12:50:22;3.13;;;1.55;;
5774;SDS011;2913;51.120;6.772;2024-02-15T12:52:49;4.93;;;1.88;;
5774;SDS011;2913;51.120;6.772;2024-02-15T12:57:47;6.82;;;1.95;;
5774;SDS011;2913;51.120;6.772;2024-02-15T13:00:19;10.25;;;1.85;;
5774;SDS011;2913;51.120;6.772;2024-02-15T13:02:57;6.45;;;2.22;;
5774;SDS011;2913;51.120;6.772;2024-02-15T13:05:26;5.22;;;1.83;;
5774;SDS011;2913;51.120;6.772;2024-02-15T13:07:53;5.15;;;2.03;;
5774;SDS011;2913;51.120;6.772;2024-02-15T13:10:30;5.65;;;1.83;;
5774;SDS011;2913;51.120;6.772;2024-02-15T13:12:58;5.68;;;1.92;;
5774;SDS011;2913;51.120;6.772;2024-02-15T13:15:26;6.75;;;2.00;;
5774;SDS011;2913;51.120;6.772;2024-02-15T13:17:55;7.95;;;2.28;;
5774;SDS011;2913;51.120;6.772;2024-02-15T13:20:21;10.48;;;2.05;;
5774;SDS011;2913;51.120;6.772;2024-02-15T13:25:50;5.03;;;1.88;;
5774;SDS011;2913;51.120;6.772;2024-02-15T13:28:17;9.85;;;2.13;;
5774;SDS011;2913;51.120;6.772;2024-02-15T13:30:45;5.53;;;2.00;;
5774;SDS011;2913;51.120;6.772;2024-02-15T13:33:11;4.78;;;1.35;;
5774;SDS011;2913;51.120;6.772;2024-02-15T13:35:37;11.45;;;2.10;;
5774;SDS011;2913;51.120;6.772;2024-02-15T13:38:08;16.05;;;1.88;;
5774;SDS011;2913;51.120;6.772;2024-02-15T13:40:39;5.85;;;1.65;;
5774;SDS011;2913;51.120;6.772;2024-02-15T13:43:09;4.93;;;1.70;;
5774;SDS011;2913;51.120;6.772;2024-02-15T13:45:41;7.75;;;2.55;;
5774;SDS011;2913;51.120;6.772;2024-02-15T13:48:07;10.23;;;1.80;;
5774;SDS011;2913;51.120;6.772;2024-02-15T13:50:36;5.35;;;1.80;;
5774;SDS011;2913;51.120;6.772;2024-02-15T13:53:03;10.68;;;1.85;;
5774;SDS011;2913;51.120;6.772;2024-02-15T13:55:34;6.87;;;3.00;;
5774;SDS011;2913;51.120;6.772;2024-02-15T13:58:01;5.45;;;1.70;;
5774;SDS011;2913;51.120;6.772;2024-02-15T14:00:29;3.05;;;1.05;;
5774;SDS011;2913;51.120;6.772;2024-02-15T14:02:58;6.22;;;1.70;;
5774;SDS011;2913;51.120;6.772;2024-02-15T14:05:27;10.05;;;1.83;;
5774;SDS011;2913;51.120;6.772;2024-02-15T14:07:55;3.90;;;1.27;;
5774;SDS011;2913;51.120;6.772;2024-02-15T14:10:22;6.28;;;1.77;;
5774;SDS011;2913;51.120;6.772;2024-02-15T14:12:53;10.07;;;2.22;;
5774;SDS011;2913;51.120;6.772;2024-02-15T14:15:30;2.58;;;1.23;;
5774;SDS011;2913;51.120;6.772;2024-02-15T14:18:04;4.65;;;1.63;;
5774;SDS011;2913;51.120;6.772;2024-02-15T14:20:35;3.90;;;1.65;;
5774;SDS011;2913;51.120;6.772;2024-02-15T14:23:03;5.07;;;1.60;;
5774;SDS011;2913;51.120;6.772;2024-02-15T14:25:38;7.78;;;1.98;;
5774;SDS011;2913;51.120;6.772;2024-02-15T14:28:04;5.47;;;1.80;;
5774;SDS011;2913;51.120;6.772;2024-02-15T14:30:35;3.15;;;1.58;;
5774;SDS011;2913;51.120;6.772;2024-02-15T14:33:20;5.20;;;1.25;;
5774;SDS011;2913;51.120;6.772;2024-02-15T14:35:47;6.72;;;1.60;;
5774;SDS011;2913;51.120;6.772;2024-02-15T14:38:20;3.20;;;1.40;;
5774;SDS011;2913;51.120;6.772;2024-02-15T14:40:49;14.57;;;2.25;;
5774;SDS011;2913;51.120;6.772;2024-02-15T14:43:23;9.75;;;1.88;;
5774;SDS011;2913;51.120;6.772;2024-02-15T14:45:51;7.43;;;1.88;;
5774;SDS011;2913;51.120;6.772;2024-02-15T14:48:18;7.85;;;1.65;;
5774;SDS011;2913;51.120;6.772;2024-02-15T14:50:45;5.10;;;1.63;;
5774;SDS011;2913;51.120;6.772;2024-02-15T14:53:11;7.18;;;1.67;;
5774;SDS011;2913;51.120;6.772;2024-02-15T14:55:43;4.88;;;1.80;;
5774;SDS011;2913;51.120;6.772;2024-02-15T14:58:11;9.30;;;1.77;;
5774;SDS011;2913;51.120;6.772;2024-02-15T15:00:38;2.75;;;1.50;;
5774;SDS011;2913;51.120;6.772;2024-02-15T15:03:04;6.47;;;1.73;;
5774;SDS011;2913;51.120;6.772;2024-02-15T15:05:30;4.93;;;1.20;;
5774;SDS011;2913;51.120;6.772;2024-02-15T15:08:14;2.63;;;1.02;;
5774;SDS011;2913;51.120;6.772;2024-02-15T15:10:58;5.22;;;1.08;;
5774;SDS011;2913;51.120;6.772;2024-02-15T15:13:42;4.43;;;1.52;;
5774;SDS011;2913;51.120;6.772;2024-02-15T15:16:08;9.57;;;1.73;;
5774;SDS011;2913;51.120;6.772;2024-02-15T15:18:39;6.65;;;1.70;;
5774;SDS011;2913;51.120;6.772;2024-02-15T15:21:10;8.75;;;2.10;;
5774;SDS011;2913;51.120;6.772;2024-02-15T15:23:37;7.78;;;1.73;;
5774;SDS011;2913;51.120;6.772;2024-02-15T15:26:04;7.60;;;2.10;;
5774;SDS011;2913;51.120;6.772;2024-02-15T15:28:31;4.38;;;1.42;;
5774;SDS011;2913;51.120;6.772;2024-02-15T15:30:57;5.57;;;1.38;;
5774;SDS011;2913;51.120;6.772;2024-02-15T15:33:23;2.95;;;1.17;;
5774;SDS011;2913;51.120;6.772;2024-02-15T15:35:49;5.68;;;1.67;;
5774;SDS011;2913;51.120;6.772;2024-02-15T15:38:19;5.85;;;1.27;;
5774;SDS011;2913;51.120;6.772;2024-02-15T15:40:46;10.70;;;1.40;;
5774;SDS011;2913;51.120;6.772;2024-02-15T15:43:12;7.22;;;1.58;;